createdAt,value
2023-03-30T19:22:30.582Z,16.30
2023-03-30T19:24:59.250Z,18.80
2023-03-30T19:27:27.631Z,16.70
2023-03-30T19:29:57.650Z,16.80
2023-03-30T19:32:26.257Z,17.30
2023-03-30T19:34:56.457Z,16.10
2023-03-30T19:37:24.942Z,15.90
2023-03-30T19:39:53.531Z,18.60
2023-03-30T19:42:23.240Z,16.20
2023-03-30T19:44:51.723Z,17.10
2023-03-30T19:47:21.648Z,11.90
2023-03-30T19:49:51.351Z,19.50
2023-03-30T19:52:19.731Z,16.70
2023-03-30T19:54:48.219Z,22.40
2023-03-30T19:57:17.072Z,17.70
2023-03-30T19:59:49.482Z,15.80
2023-03-30T20:02:18.578Z,13.20
2023-03-30T20:04:47.791Z,18.40
2023-03-30T20:07:16.595Z,15.70
2023-03-30T20:09:45.666Z,16.40
2023-03-30T20:12:14.061Z,13.80
2023-03-30T20:14:43.862Z,15.60
2023-03-30T20:17:12.362Z,16.00
2023-03-30T20:19:41.053Z,13.20
2023-03-30T20:22:13.002Z,11.90
2023-03-30T20:24:45.080Z,10.40
2023-03-30T20:27:13.654Z,10.30
2023-03-30T20:29:42.344Z,11.50
2023-03-30T20:32:11.033Z,10.90
2023-03-30T20:34:42.793Z,9.10
2023-03-30T20:37:11.272Z,10.30
2023-03-30T20:39:39.657Z,9.40
2023-03-30T20:42:09.678Z,8.60
2023-03-30T20:44:40.833Z,8.50
2023-03-30T20:47:11.349Z,13.30
2023-03-30T20:49:41.942Z,8.80
2023-03-30T20:52:12.000Z,12.80
2023-03-30T20:54:44.617Z,10.00
2023-03-30T20:57:14.006Z,12.10
2023-03-30T20:59:42.780Z,13.50
2023-03-30T21:02:11.869Z,16.60
2023-03-30T21:04:40.614Z,13.80
2023-03-30T21:07:12.631Z,12.50
2023-03-30T21:09:42.237Z,13.10
2023-03-30T21:12:10.668Z,13.50
2023-03-30T21:14:46.188Z,13.90
2023-03-30T21:17:14.665Z,11.80
2023-03-30T21:19:43.337Z,18.30
2023-03-30T21:22:12.629Z,15.10
2023-03-30T21:24:42.962Z,15.90
2023-03-30T21:27:14.102Z,18.30
2023-03-30T21:29:45.139Z,17.10
2023-03-30T21:32:13.924Z,16.10
2023-03-30T21:34:42.716Z,16.80
2023-03-30T21:37:11.169Z,18.00
2023-03-30T21:39:39.985Z,21.60
2023-03-30T21:42:08.372Z,18.90
2023-03-30T21:44:36.947Z,18.60
2023-03-30T21:47:05.533Z,17.40
2023-03-30T21:49:34.528Z,16.50
2023-03-30T21:52:04.246Z,17.40
2023-03-30T21:54:32.820Z,18.00
2023-03-30T21:57:01.328Z,16.30
2023-03-30T21:59:29.991Z,18.90
2023-03-30T22:01:58.477Z,19.80
2023-03-30T22:04:26.843Z,16.40
2023-03-30T22:06:55.228Z,17.60
2023-03-30T22:09:23.816Z,15.60
2023-03-30T22:11:55.787Z,16.10
2023-03-30T22:14:25.483Z,18.10
2023-03-30T22:16:53.964Z,16.10
2023-03-30T22:19:29.215Z,15.00
2023-03-30T22:21:57.890Z,15.10
2023-03-30T22:24:26.371Z,14.90
2023-03-30T22:26:55.676Z,13.40
2023-03-30T22:29:24.062Z,17.40
2023-03-30T22:31:56.104Z,15.60
2023-03-30T22:34:25.115Z,14.10
2023-03-30T22:36:54.622Z,11.10
2023-03-30T22:39:23.819Z,12.30
2023-03-30T22:41:52.420Z,12.60
2023-03-30T22:44:21.705Z,13.20
2023-03-30T22:46:49.985Z,10.40
2023-03-30T22:49:18.580Z,15.10
2023-03-30T22:51:52.806Z,12.40
2023-03-30T22:54:21.999Z,13.00
2023-03-30T22:56:51.406Z,13.00
2023-03-30T22:59:19.980Z,14.10
2023-03-30T23:01:48.360Z,15.80
2023-03-30T23:04:17.450Z,12.20
2023-03-30T23:06:46.235Z,12.50
2023-03-30T23:09:14.816Z,14.80
2023-03-30T23:11:47.811Z,12.70
2023-03-30T23:14:16.495Z,15.20
2023-03-30T23:16:46.607Z,13.40
2023-03-30T23:19:16.230Z,13.90
2023-03-30T23:21:46.036Z,12.70
2023-03-30T23:24:17.078Z,12.30
2023-03-30T23:26:46.790Z,11.30
2023-03-30T23:29:15.166Z,15.80
2023-03-30T23:31:44.674Z,17.20
2023-03-30T23:34:13.672Z,15.20
2023-03-30T23:39:12.288Z,17.10
2023-03-30T23:41:40.964Z,18.60
2023-03-30T23:44:12.309Z,16.10
2023-03-30T23:46:42.102Z,18.60
2023-03-30T23:49:10.708Z,15.70
2023-03-30T23:51:39.507Z,15.10
2023-03-30T23:54:08.087Z,16.00
2023-03-30T23:56:38.116Z,17.20
2023-03-30T23:59:07.003Z,21.00
